createdAt,value
2022-12-26T00:01:06.672Z,99814.75
2022-12-26T00:04:48.505Z,99807.78
2022-12-26T00:07:30.182Z,99810.25
2022-12-26T00:10:31.679Z,99806.66
2022-12-26T00:13:38.969Z,99821.72
2022-12-26T00:16:44.239Z,99813.34
2022-12-26T00:19:45.771Z,99806.69
2022-12-26T00:22:47.409Z,99814.75
2022-12-26T00:25:48.917Z,99808.16
2022-12-26T00:28:52.798Z,99814.34
2022-12-26T00:31:54.271Z,99801.09
2022-12-26T00:34:55.682Z,99804.47
2022-12-26T00:37:57.328Z,99808.44
2022-12-26T00:40:58.877Z,99811.78
2022-12-26T00:44:00.458Z,99806.69
2022-12-26T00:47:02.068Z,99820.13
2022-12-26T00:50:13.826Z,99815.88
2022-12-26T00:53:17.097Z,99820.97
2022-12-26T00:56:18.644Z,99825.25
2022-12-26T00:59:20.047Z,99818.16
2022-12-26T01:02:40.037Z,99817.03
2022-12-26T01:05:43.966Z,99806.31
2022-12-26T01:08:45.503Z,99806.09
2022-12-26T01:11:46.967Z,99809.53
2022-12-26T01:14:48.411Z,99811.13
2022-12-26T01:17:49.835Z,99819.53
2022-12-26T01:20:51.455Z,99819.69
2022-12-26T01:23:52.944Z,99829.88
2022-12-26T01:26:54.385Z,99813.22
2022-12-26T01:29:56.473Z,99824.13
2022-12-26T01:32:58.910Z,99816.09
2022-12-26T01:36:00.524Z,99824.25
2022-12-26T01:39:02.031Z,99820.50
2022-12-26T01:42:03.558Z,99817.59
2022-12-26T01:45:27.511Z,99811.31
2022-12-26T01:48:34.325Z,99802.53
2022-12-26T01:51:40.686Z,99820.50
2022-12-26T01:54:46.902Z,99834.88
2022-12-26T01:57:56.348Z,99857.59
2022-12-26T02:00:58.113Z,99865.56
2022-12-26T02:04:21.292Z,99866.25
2022-12-26T02:07:24.318Z,99858.66
2022-12-26T02:10:28.672Z,99852.13
2022-12-26T02:13:30.662Z,99863.63
2022-12-26T02:16:34.008Z,99864.84
2022-12-26T02:19:48.169Z,99852.06
2022-12-26T02:23:30.919Z,99855.56
2022-12-26T02:27:17.542Z,99851.16
2022-12-26T02:30:31.124Z,99863.44
2022-12-26T02:33:46.978Z,99863.84
2022-12-26T02:37:27.540Z,99870.63
2022-12-26T02:41:00.721Z,99855.53
2022-12-26T02:44:44.174Z,99846.84
2022-12-26T02:47:59.089Z,99836.72
2022-12-26T02:51:45.645Z,99835.91
2022-12-26T02:55:19.540Z,99826.75
2022-12-26T02:58:44.857Z,99834.06
2022-12-26T03:02:09.176Z,99826.34
2022-12-26T03:05:36.820Z,99825.41
2022-12-26T03:09:42.682Z,99834.06
2022-12-26T03:13:12.419Z,99817.63
2022-12-26T03:16:34.629Z,99814.81
2022-12-26T03:19:57.988Z,99815.13
2022-12-26T03:23:15.109Z,99823.31
2022-12-26T03:26:39.610Z,99823.63
2022-12-26T03:29:59.716Z,99821.53
2022-12-26T03:33:01.226Z,99819.94
2022-12-26T03:36:04.462Z,99819.41
2022-12-26T03:39:20.922Z,99820.69
2022-12-26T03:42:49.868Z,99812.94
2022-12-26T03:46:25.101Z,99815.03
2022-12-26T03:49:52.556Z,99824.75
2022-12-26T03:53:28.575Z,99815.94
2022-12-26T03:57:01.528Z,99820.38
2022-12-26T04:00:27.907Z,99808.75
2022-12-26T04:03:50.485Z,99816.31
2022-12-26T04:07:14.198Z,99821.75
2022-12-26T04:10:45.633Z,99802.91
2022-12-26T04:14:15.126Z,99809.63
2022-12-26T04:18:07.412Z,99814.91
2022-12-26T04:21:37.429Z,99804.88
2022-12-26T04:25:14.000Z,99804.88
2022-12-26T04:28:34.286Z,99810.13
2022-12-26T04:32:09.465Z,99800.13
2022-12-26T04:35:36.994Z,99798.59
2022-12-26T04:39:01.392Z,99804.06
2022-12-26T04:42:22.486Z,99811.59
2022-12-26T04:45:24.104Z,99814.09
2022-12-26T04:48:43.798Z,99822.13
2022-12-26T04:51:45.342Z,99818.00
2022-12-26T04:54:46.803Z,99824.09
2022-12-26T04:57:48.241Z,99835.56
2022-12-26T05:00:50.823Z,99834.94
2022-12-26T05:04:10.892Z,99830.97
2022-12-26T05:07:38.417Z,99821.09
2022-12-26T05:10:40.103Z,99824.44
2022-12-26T05:13:41.612Z,99828.53
2022-12-26T05:17:01.428Z,99822.44
2022-12-26T05:20:21.857Z,99818.16
2022-12-26T05:23:46.159Z,99826.06
2022-12-26T05:27:06.402Z,99832.50
2022-12-26T05:30:08.580Z,99821.47
2022-12-26T05:33:28.446Z,99820.81
2022-12-26T05:36:34.218Z,99820.94
2022-12-26T05:39:36.757Z,99817.88
2022-12-26T05:42:38.222Z,99819.47
2022-12-26T05:45:39.665Z,99826.88
2022-12-26T05:48:41.354Z,99826.88
2022-12-26T05:51:42.815Z,99828.03
2022-12-26T05:54:44.237Z,99820.66
2022-12-26T05:57:45.657Z,99805.69
2022-12-26T06:00:47.523Z,99799.09
2022-12-26T06:03:52.308Z,99806.03
2022-12-26T06:06:56.362Z,99805.19
2022-12-26T06:09:57.871Z,99814.88
2022-12-26T06:13:00.172Z,99817.66
2022-12-26T06:16:05.847Z,99804.69
2022-12-26T06:19:07.425Z,99797.13
2022-12-26T06:22:08.945Z,99800.06
2022-12-26T06:25:10.442Z,99793.50
2022-12-26T06:28:11.905Z,99788.44
2022-12-26T06:31:20.270Z,99785.47
2022-12-26T06:34:21.782Z,99782.69
2022-12-26T06:37:23.304Z,99779.53
2022-12-26T06:40:24.779Z,99779.72
2022-12-26T06:43:26.185Z,99787.28
2022-12-26T06:46:28.320Z,99785.31
2022-12-26T06:49:32.980Z,99788.41
2022-12-26T06:52:34.777Z,99811.59
2022-12-26T06:55:36.202Z,99807.97
2022-12-26T06:58:38.389Z,99795.16
2022-12-26T07:01:40.017Z,99798.44
2022-12-26T07:04:41.678Z,99804.88
2022-12-26T07:07:43.313Z,99797.00
2022-12-26T07:10:44.910Z,99800.44
2022-12-26T07:13:46.789Z,99794.72
2022-12-26T07:16:48.325Z,99803.72
2022-12-26T07:19:52.098Z,99810.28
2022-12-26T07:22:54.475Z,99811.44
2022-12-26T07:25:55.954Z,99817.19
2022-12-26T07:28:59.022Z,99815.38
2022-12-26T07:32:00.543Z,99840.78
2022-12-26T07:35:02.091Z,99825.19
2022-12-26T07:38:03.560Z,99839.97
2022-12-26T07:41:25.071Z,99847.00
2022-12-26T07:44:28.443Z,99859.75
2022-12-26T07:47:29.953Z,99860.84
2022-12-26T07:50:31.459Z,99870.22
2022-12-26T07:53:32.919Z,99876.13
2022-12-26T07:56:34.489Z,99875.34
2022-12-26T07:59:36.216Z,99886.31
2022-12-26T08:02:37.869Z,99892.53
2022-12-26T08:05:39.550Z,99898.03
2022-12-26T08:08:45.453Z,99911.56
2022-12-26T08:11:50.107Z,99931.38
2022-12-26T08:14:51.600Z,99944.66
2022-12-26T08:17:53.122Z,99957.88
2022-12-26T08:20:54.625Z,99956.97
2022-12-26T08:23:56.047Z,99953.31
2022-12-26T08:26:57.479Z,99962.97
2022-12-26T08:29:58.935Z,99960.88
2022-12-26T08:33:00.448Z,99977.34
2022-12-26T08:36:03.777Z,99975.25
2022-12-26T08:39:05.466Z,99975.84
2022-12-26T08:42:06.962Z,99985.38
2022-12-26T08:45:08.647Z,99985.63
2022-12-26T08:48:10.097Z,99997.75
2022-12-26T08:51:15.048Z,99999.25
2022-12-26T08:54:16.608Z,99994.34
2022-12-26T08:57:18.112Z,100002.75
2022-12-26T09:00:19.583Z,100016.47
2022-12-26T09:03:21.451Z,100021.84
2022-12-26T09:06:23.056Z,100024.56
2022-12-26T09:09:24.571Z,100044.19
2022-12-26T09:12:26.280Z,100043.59
2022-12-26T09:15:27.854Z,100051.69
2022-12-26T09:18:31.588Z,100061.94
2022-12-26T09:21:33.265Z,100059.31
2022-12-26T09:24:34.748Z,100070.94
2022-12-26T09:27:36.324Z,100076.19
2022-12-26T09:30:37.909Z,100090.03
2022-12-26T09:33:39.945Z,100094.44
2022-12-26T09:36:41.414Z,100114.97
2022-12-26T09:39:42.833Z,100133.34
2022-12-26T09:43:09.380Z,100117.28
2022-12-26T09:46:24.884Z,100128.34
2022-12-26T09:49:32.702Z,100126.38
2022-12-26T09:52:45.596Z,100127.13
2022-12-26T09:55:47.035Z,100122.41
2022-12-26T09:58:53.442Z,100137.91
2022-12-26T10:01:55.054Z,100126.38
2022-12-26T10:04:56.814Z,100111.75
2022-12-26T10:08:06.402Z,100130.44
2022-12-26T10:11:15.590Z,100131.50
2022-12-26T10:14:32.823Z,100124.28
2022-12-26T10:17:46.812Z,100135.13
2022-12-26T10:21:02.084Z,100124.75
2022-12-26T10:24:12.362Z,100126.16
2022-12-26T10:27:19.884Z,100112.22
2022-12-26T10:30:31.658Z,100119.66
2022-12-26T10:34:02.863Z,100112.00
2022-12-26T10:37:27.691Z,100121.03
2022-12-26T10:40:42.456Z,100106.78
2022-12-26T10:43:45.521Z,100105.78
2022-12-26T10:47:10.733Z,100102.44
2022-12-26T10:50:29.304Z,100108.41
2022-12-26T10:53:31.091Z,100126.50
2022-12-26T10:56:33.566Z,100120.44
2022-12-26T10:59:41.253Z,100126.28
2022-12-26T11:02:43.005Z,100138.47
2022-12-26T11:06:08.400Z,100132.69
2022-12-26T11:09:45.536Z,100139.56
2022-12-26T11:12:55.860Z,100138.78
2022-12-26T11:15:57.427Z,100128.31
2022-12-26T11:18:59.308Z,100127.44
2022-12-26T11:22:21.901Z,100123.66
2022-12-26T11:25:24.750Z,100127.25
2022-12-26T11:28:36.667Z,100130.81
2022-12-26T11:31:40.797Z,100142.09
2022-12-26T11:34:47.829Z,100133.44
2022-12-26T11:37:56.014Z,100136.91
2022-12-26T11:41:16.256Z,100138.59
2022-12-26T11:44:24.306Z,100123.66
2022-12-26T11:47:28.537Z,100121.34
2022-12-26T11:50:31.031Z,100107.22
2022-12-26T11:53:34.743Z,100103.53
2022-12-26T11:56:36.378Z,100113.16
2022-12-26T11:59:37.947Z,100110.81
2022-12-26T12:02:40.907Z,100119.22
2022-12-26T12:05:57.751Z,100112.91
2022-12-26T12:09:24.689Z,100101.28
2022-12-26T12:12:35.256Z,100093.19
2022-12-26T12:15:51.700Z,100095.94
2022-12-26T12:19:23.928Z,100111.34
2022-12-26T12:22:48.395Z,100109.28
2022-12-26T12:25:57.434Z,100100.44
2022-12-26T12:29:26.499Z,100117.59
2022-12-26T12:32:56.907Z,100115.50
2022-12-26T12:36:29.204Z,100104.88
2022-12-26T12:39:47.197Z,100116.94
2022-12-26T12:43:08.552Z,100100.47
2022-12-26T12:46:22.630Z,100108.47
2022-12-26T12:49:38.003Z,100101.66
2022-12-26T12:53:09.359Z,100105.66
2022-12-26T12:56:23.019Z,100100.72
2022-12-26T12:59:53.843Z,100091.22
2022-12-26T13:03:11.159Z,100083.66
2022-12-26T13:06:19.306Z,100099.47
2022-12-26T13:09:27.969Z,100100.72
2022-12-26T13:12:35.710Z,100102.53
2022-12-26T13:15:44.563Z,100103.75
2022-12-26T13:18:52.697Z,100078.66
2022-12-26T13:22:01.164Z,100080.53
2022-12-26T13:25:03.412Z,100072.25
2022-12-26T13:28:09.725Z,100062.75
2022-12-26T13:31:11.477Z,100066.38
2022-12-26T13:34:18.098Z,100065.50
2022-12-26T13:37:37.785Z,100061.06
2022-12-26T13:40:46.872Z,100057.56
2022-12-26T13:44:04.193Z,100051.72
2022-12-26T13:47:06.387Z,100045.84
2022-12-26T13:50:50.026Z,100049.16
2022-12-26T13:54:02.815Z,100058.97
2022-12-26T13:57:44.044Z,100050.50
2022-12-26T14:00:48.097Z,100057.22
2022-12-26T14:04:13.269Z,100060.84
2022-12-26T14:07:34.291Z,100069.78
2022-12-26T14:11:13.040Z,100081.25
2022-12-26T14:14:29.968Z,100066.63
2022-12-26T14:17:49.924Z,100067.69
2022-12-26T14:21:12.755Z,100044.84
2022-12-26T14:24:25.882Z,100051.97
2022-12-26T14:27:46.225Z,100053.31
2022-12-26T14:31:09.736Z,100054.38
2022-12-26T14:34:20.859Z,100054.16
2022-12-26T14:37:27.454Z,100047.84
2022-12-26T14:40:35.492Z,100045.84
2022-12-26T14:43:40.813Z,100054.22
2022-12-26T14:46:42.288Z,100057.97
2022-12-26T14:49:44.142Z,100052.09
2022-12-26T14:52:45.755Z,100039.03
2022-12-26T14:55:49.131Z,100052.72
2022-12-26T14:58:52.113Z,100068.97
2022-12-26T15:02:10.609Z,100064.63
2022-12-26T15:05:22.573Z,100051.69
2022-12-26T15:09:00.881Z,100047.34
2022-12-26T15:12:31.652Z,100056.09
2022-12-26T15:15:46.623Z,100058.97
2022-12-26T15:18:57.054Z,100048.56
2022-12-26T15:22:21.977Z,100048.66
2022-12-26T15:26:09.640Z,100055.75
2022-12-26T15:29:46.489Z,100048.16
2022-12-26T15:33:11.104Z,100050.28
2022-12-26T15:36:49.467Z,100057.28
2022-12-26T15:39:54.295Z,100060.69
2022-12-26T15:43:09.810Z,100061.84
2022-12-26T15:46:21.413Z,100057.81
2022-12-26T15:49:58.381Z,100050.56
2022-12-26T15:53:46.279Z,100066.34
2022-12-26T15:57:16.043Z,100060.19
2022-12-26T16:00:49.133Z,100067.09
2022-12-26T16:03:56.863Z,100054.22
2022-12-26T16:07:09.362Z,100051.59
2022-12-26T16:10:25.895Z,100067.31
2022-12-26T16:13:27.607Z,100062.09
2022-12-26T16:16:35.306Z,100047.13
2022-12-26T16:19:37.729Z,100048.00
2022-12-26T16:22:46.718Z,100047.13
2022-12-26T16:25:56.922Z,100047.59
2022-12-26T16:29:00.507Z,100046.84
2022-12-26T16:32:07.299Z,100043.81
2022-12-26T16:35:31.323Z,100044.28
2022-12-26T16:38:32.875Z,100034.22
2022-12-26T16:41:45.555Z,100041.94
2022-12-26T16:44:47.111Z,100033.34
2022-12-26T16:47:49.861Z,100041.63
2022-12-26T16:51:04.821Z,100056.81
2022-12-26T16:54:21.247Z,100046.63
2022-12-26T16:57:23.192Z,100052.25
2022-12-26T17:00:26.545Z,100057.94
2022-12-26T17:03:39.128Z,100060.69
2022-12-26T17:06:48.966Z,100066.34
2022-12-26T17:09:56.977Z,100069.72
2022-12-26T17:13:05.261Z,100075.84
2022-12-26T17:16:11.915Z,100073.38
2022-12-26T17:19:21.494Z,100065.06
2022-12-26T17:22:29.044Z,100078.22
2022-12-26T17:25:33.519Z,100083.44
2022-12-26T17:28:37.375Z,100082.75
2022-12-26T17:31:42.010Z,100101.84
2022-12-26T17:34:43.962Z,100107.16
2022-12-26T17:37:50.049Z,100099.16
2022-12-26T17:40:58.395Z,100120.06
2022-12-26T17:44:00.087Z,100143.16
2022-12-26T17:47:23.421Z,100158.16
2022-12-26T17:50:31.151Z,100163.66
2022-12-26T17:53:36.121Z,100207.66
2022-12-26T17:56:37.600Z,100204.22
2022-12-26T17:59:39.042Z,100206.47
2022-12-26T18:02:40.628Z,100222.63
2022-12-26T18:05:42.503Z,100228.78
2022-12-26T18:08:44.817Z,100237.50
2022-12-26T18:11:46.162Z,100249.91
2022-12-26T18:14:47.700Z,100247.16
2022-12-26T18:17:50.541Z,100273.06
2022-12-26T18:20:52.156Z,100279.81
2022-12-26T18:23:53.844Z,100276.50
2022-12-26T18:26:55.398Z,100285.81
2022-12-26T18:29:57.560Z,100294.09
2022-12-26T18:32:59.422Z,100304.78
2022-12-26T18:36:07.265Z,100300.19
2022-12-26T18:39:15.217Z,100311.34
2022-12-26T18:42:17.541Z,100315.13
2022-12-26T18:45:19.028Z,100322.25
2022-12-26T18:48:20.604Z,100317.41
2022-12-26T18:51:23.934Z,100320.97
2022-12-26T18:54:25.479Z,100324.09
2022-12-26T18:57:26.939Z,100327.25
2022-12-26T19:00:28.594Z,100325.09
2022-12-26T19:03:30.072Z,100330.31
2022-12-26T19:06:35.044Z,100332.34
2022-12-26T19:09:37.156Z,100321.88
2022-12-26T19:12:38.636Z,100334.53
2022-12-26T19:15:45.329Z,100340.09
2022-12-26T19:18:46.864Z,100339.59
2022-12-26T19:21:48.353Z,100350.88
2022-12-26T19:24:49.858Z,100358.13
2022-12-26T19:27:51.987Z,100365.00
2022-12-26T19:30:53.509Z,100383.44
2022-12-26T19:33:58.691Z,100392.03
2022-12-26T19:37:00.203Z,100393.94
2022-12-26T19:40:02.787Z,100399.50
2022-12-26T19:43:04.338Z,100413.22
2022-12-26T19:46:08.303Z,100411.22
2022-12-26T19:49:09.889Z,100416.94
2022-12-26T19:52:12.126Z,100415.72
2022-12-26T19:55:13.635Z,100424.25
2022-12-26T19:58:15.098Z,100429.63
2022-12-26T20:01:22.331Z,100443.41
2022-12-26T20:04:23.980Z,100450.19
2022-12-26T20:07:25.505Z,100465.16
2022-12-26T20:10:27.058Z,100478.75
2022-12-26T20:13:28.545Z,100482.59
2022-12-26T20:17:04.444Z,100486.69
2022-12-26T20:19:52.219Z,100498.78
2022-12-26T20:22:53.921Z,100504.75
2022-12-26T20:25:58.576Z,100500.47
2022-12-26T20:29:03.996Z,100522.72
2022-12-26T20:32:05.564Z,100528.78
2022-12-26T20:35:07.387Z,100531.91
2022-12-26T20:38:08.871Z,100541.28
2022-12-26T20:41:11.375Z,100550.91
2022-12-26T20:44:13.572Z,100561.06
2022-12-26T20:47:15.156Z,100562.81
2022-12-26T20:50:17.473Z,100565.59
2022-12-26T20:53:20.004Z,100577.31
2022-12-26T20:56:21.611Z,100573.97
2022-12-26T20:59:23.479Z,100591.13
2022-12-26T21:02:25.121Z,100583.72
2022-12-26T21:05:26.937Z,100595.59
2022-12-26T21:08:28.443Z,100595.59
2022-12-26T21:11:36.128Z,100605.09
2022-12-26T21:14:37.599Z,100608.22
2022-12-26T21:17:39.071Z,100607.88
2022-12-26T21:20:41.473Z,100609.13
2022-12-26T21:23:43.574Z,100613.63
2022-12-26T21:26:45.875Z,100630.16
2022-12-26T21:29:47.257Z,100628.63
2022-12-26T21:32:50.736Z,100636.03
2022-12-26T21:35:55.500Z,100636.53
2022-12-26T21:39:05.399Z,100636.44
2022-12-26T21:42:10.867Z,100646.31
2022-12-26T21:45:14.820Z,100651.19
2022-12-26T21:48:16.482Z,100656.28
2022-12-26T21:51:21.555Z,100656.06
2022-12-26T21:54:48.297Z,100662.50
2022-12-26T21:57:51.277Z,100687.22
2022-12-26T22:00:53.091Z,100684.53
2022-12-26T22:04:13.943Z,100700.81
2022-12-26T22:07:15.672Z,100698.31
2022-12-26T22:10:39.938Z,100703.66
2022-12-26T22:13:51.906Z,100704.72
2022-12-26T22:16:54.674Z,100719.38
2022-12-26T22:19:57.183Z,100719.59
2022-12-26T22:23:02.847Z,100721.72
2022-12-26T22:26:05.529Z,100727.56
2022-12-26T22:29:10.481Z,100736.34
2022-12-26T22:32:12.175Z,100736.72
2022-12-26T22:35:18.796Z,100739.78
2022-12-26T22:38:24.043Z,100747.84
2022-12-26T22:41:33.488Z,100755.00
2022-12-26T22:44:52.772Z,100766.75
2022-12-26T22:47:54.535Z,100769.84
2022-12-26T22:50:58.905Z,100775.66
2022-12-26T22:54:08.579Z,100783.66
2022-12-26T22:57:10.066Z,100783.88
2022-12-26T23:00:15.522Z,100778.75
2022-12-26T23:03:20.041Z,100796.47
2022-12-26T23:06:33.379Z,100788.47
2022-12-26T23:09:35.276Z,100791.16
2022-12-26T23:12:46.133Z,100800.09
2022-12-26T23:16:03.153Z,100797.13
2022-12-26T23:19:39.099Z,100806.50
2022-12-26T23:22:43.879Z,100810.72
2022-12-26T23:25:45.396Z,100817.69
2022-12-26T23:29:05.157Z,100819.16
2022-12-26T23:32:08.182Z,100830.25
2022-12-26T23:35:24.883Z,100833.94
2022-12-26T23:38:26.718Z,100834.00
2022-12-26T23:41:28.389Z,100843.72
2022-12-26T23:44:31.227Z,100840.06
2022-12-26T23:47:36.807Z,100844.34
2022-12-26T23:50:38.838Z,100844.69
2022-12-26T23:53:40.333Z,100845.84
2022-12-26T23:56:42.006Z,100846.16
2022-12-26T23:59:43.501Z,100859.53
